createdAt,value
2022-10-27T03:03:11.344Z,1003.29
2022-10-27T03:04:12.690Z,1003.25
2022-10-27T03:05:12.887Z,1003.19
2022-10-27T03:06:12.547Z,1003.17
2022-10-27T03:07:12.542Z,1003.09
2022-10-27T03:08:12.406Z,1003.18
2022-10-27T03:09:12.420Z,1003.16
2022-10-27T03:11:12.387Z,1003.22
2022-10-27T03:12:12.431Z,1003.24
2022-10-27T03:13:12.434Z,1003.26
2022-10-27T03:14:12.385Z,1003.23
2022-10-27T03:15:12.443Z,1003.22
2022-10-27T03:16:12.390Z,1003.21
2022-10-27T03:17:12.469Z,1003.22
2022-10-27T03:18:12.427Z,1003.28
2022-10-27T03:19:12.374Z,1003.25
2022-10-27T03:20:12.337Z,1003.21
2022-10-27T03:21:12.335Z,1003.27
2022-10-27T03:22:12.344Z,1003.31
2022-10-27T03:23:12.330Z,1003.31
2022-10-27T03:24:12.403Z,1003.32
2022-10-27T03:25:12.307Z,1003.31
2022-10-27T03:26:12.336Z,1003.32
2022-10-27T03:27:12.333Z,1003.29
2022-10-27T03:28:12.232Z,1003.34
2022-10-27T03:29:12.243Z,1003.33
2022-10-27T03:30:12.233Z,1003.34
2022-10-27T03:31:12.241Z,1003.37
2022-10-27T03:32:12.233Z,1003.37
2022-10-27T03:33:12.196Z,1003.31
2022-10-27T03:34:12.201Z,1003.39
2022-10-27T03:35:12.215Z,1003.40
2022-10-27T03:36:12.199Z,1003.37
2022-10-27T03:37:12.178Z,1003.37
2022-10-27T03:38:12.193Z,1003.38
2022-10-27T03:39:12.111Z,1003.38
2022-10-27T03:40:12.143Z,1003.41
2022-10-27T03:41:12.124Z,1003.41
2022-10-27T03:42:12.092Z,1003.34
2022-10-27T03:43:12.161Z,1003.34
2022-10-27T03:44:12.082Z,1003.38
2022-10-27T03:45:12.116Z,1003.41
2022-10-27T03:46:12.164Z,1003.36
2022-10-27T03:47:12.068Z,1003.38
2022-10-27T03:48:12.047Z,1003.38
2022-10-27T03:49:12.005Z,1003.38
2022-10-27T03:50:11.955Z,1003.49
2022-10-27T03:51:12.125Z,1003.45
2022-10-27T03:52:12.046Z,1003.45
2022-10-27T03:53:11.961Z,1003.45
2022-10-27T03:54:12.026Z,1003.44
2022-10-27T03:55:12.064Z,1003.53
2022-10-27T03:56:12.029Z,1003.55
2022-10-27T03:57:12.044Z,1003.55
2022-10-27T03:58:16.346Z,1003.55
2022-10-27T03:59:14.007Z,1003.54
2022-10-27T04:00:11.967Z,1003.46
2022-10-27T04:01:12.113Z,1003.44
2022-10-27T04:02:12.055Z,1003.46
2022-10-27T04:03:12.000Z,1003.46
2022-10-27T04:04:11.883Z,1003.44
2022-10-27T04:05:11.935Z,1003.45
2022-10-27T04:06:11.893Z,1003.51
2022-10-27T04:07:11.965Z,1003.40
2022-10-27T04:08:11.872Z,1003.46
2022-10-27T04:09:11.914Z,1003.48
2022-10-27T04:10:11.910Z,1003.47
2022-10-27T04:11:11.802Z,1003.53
2022-10-27T04:12:11.861Z,1003.58
2022-10-27T04:13:11.806Z,1003.52
2022-10-27T04:14:11.819Z,1003.60
2022-10-27T04:15:11.819Z,1003.63
2022-10-27T04:16:11.835Z,1003.62
2022-10-27T04:17:11.772Z,1003.53
2022-10-27T04:18:11.745Z,1003.60
2022-10-27T04:19:11.747Z,1003.58
2022-10-27T04:20:11.798Z,1003.59
2022-10-27T04:21:11.760Z,1003.60
2022-10-27T04:22:11.765Z,1003.61
2022-10-27T04:23:11.697Z,1003.60
2022-10-27T04:24:11.697Z,1003.64
2022-10-27T04:25:11.686Z,1003.64
2022-10-27T04:26:11.789Z,1003.69
2022-10-27T04:28:11.649Z,1003.70
2022-10-27T04:29:11.641Z,1003.68
2022-10-27T04:30:11.725Z,1003.73
2022-10-27T04:31:11.579Z,1003.68
2022-10-27T04:32:11.631Z,1003.66
2022-10-27T04:33:11.620Z,1003.68
2022-10-27T04:34:11.627Z,1003.69
2022-10-27T04:35:11.581Z,1003.60
2022-10-27T04:36:11.500Z,1003.67
2022-10-27T04:37:11.579Z,1003.64
2022-10-27T04:38:11.576Z,1003.64
2022-10-27T04:39:11.520Z,1003.67
2022-10-27T04:40:11.495Z,1003.58
2022-10-27T04:41:11.538Z,1003.63
2022-10-27T04:42:11.539Z,1003.57
2022-10-27T04:43:11.502Z,1003.61
2022-10-27T04:44:11.445Z,1003.51
2022-10-27T04:45:11.489Z,1003.58
2022-10-27T04:46:11.486Z,1003.59
2022-10-27T04:47:11.478Z,1003.57
2022-10-27T04:48:11.398Z,1003.66
2022-10-27T04:49:11.737Z,1003.51
2022-10-27T04:50:11.405Z,1003.56
2022-10-27T04:51:11.458Z,1003.54
2022-10-27T04:53:11.388Z,1003.58
2022-10-27T04:54:11.330Z,1003.57
2022-10-27T04:55:11.417Z,1003.56
2022-10-27T04:56:11.347Z,1003.52
2022-10-27T04:57:11.457Z,1003.53
2022-10-27T04:58:11.369Z,1003.57
2022-10-27T04:59:11.323Z,1003.53
2022-10-27T05:00:11.341Z,1003.53
2022-10-27T05:01:11.412Z,1003.48
2022-10-27T05:02:11.373Z,1003.51
2022-10-27T05:03:11.251Z,1003.47
2022-10-27T05:04:11.576Z,1003.47
2022-10-27T05:05:11.253Z,1003.47
2022-10-27T05:06:11.274Z,1003.41
2022-10-27T05:07:11.271Z,1003.51
2022-10-27T05:08:11.405Z,1003.51
2022-10-27T05:09:11.230Z,1003.42
2022-10-27T05:10:11.206Z,1003.46
2022-10-27T05:11:13.968Z,1003.46
2022-10-27T05:12:11.348Z,1003.42
2022-10-27T05:13:11.334Z,1003.51
2022-10-27T05:14:11.224Z,1003.55
2022-10-27T05:15:11.617Z,1003.51
2022-10-27T05:16:11.154Z,1003.46
2022-10-27T05:17:13.445Z,1003.47
2022-10-27T05:18:11.237Z,1003.46
2022-10-27T05:19:11.163Z,1003.53
2022-10-27T05:20:11.164Z,1003.52
2022-10-27T05:21:11.193Z,1003.50
2022-10-27T05:22:11.111Z,1003.47
2022-10-27T05:23:11.179Z,1003.45
2022-10-27T05:24:11.143Z,1003.45
2022-10-27T05:25:11.142Z,1003.44
2022-10-27T05:26:11.089Z,1003.42
2022-10-27T05:27:11.265Z,1003.45
2022-10-27T05:28:11.174Z,1003.43
2022-10-27T05:29:11.056Z,1003.46
2022-10-27T05:30:11.156Z,1003.44
2022-10-27T05:31:10.982Z,1003.46
2022-10-27T05:32:10.991Z,1003.40
2022-10-27T05:33:11.037Z,1003.43
2022-10-27T05:34:11.160Z,1003.42
2022-10-27T05:35:11.180Z,1003.44
2022-10-27T05:36:11.141Z,1003.46
2022-10-27T05:37:11.050Z,1003.43
2022-10-27T05:38:11.018Z,1003.45
2022-10-27T05:39:11.071Z,1003.44
2022-10-27T05:40:10.894Z,1003.47
2022-10-27T05:41:10.969Z,1003.46
2022-10-27T05:42:11.035Z,1003.53
2022-10-27T05:43:11.054Z,1003.45
2022-10-27T05:44:10.864Z,1003.51
2022-10-27T05:45:10.821Z,1003.54
2022-10-27T05:46:10.862Z,1003.57
2022-10-27T05:47:10.895Z,1003.53
2022-10-27T05:48:10.738Z,1003.52
2022-10-27T05:49:11.589Z,1003.54
2022-10-27T05:50:10.782Z,1003.60
2022-10-27T05:51:10.820Z,1003.55
2022-10-27T05:52:10.812Z,1003.55
2022-10-27T05:53:10.933Z,1003.56
2022-10-27T05:54:10.829Z,1003.52
2022-10-27T05:55:10.831Z,1003.42
2022-10-27T05:56:10.826Z,1003.53
2022-10-27T05:57:10.869Z,1003.52
2022-10-27T05:58:11.297Z,1003.50
2022-10-27T05:59:10.751Z,1003.49
2022-10-27T06:00:10.660Z,1003.53
2022-10-27T06:01:11.239Z,1003.43
2022-10-27T06:02:10.839Z,1003.39
2022-10-27T06:03:10.717Z,1003.35
2022-10-27T06:04:10.656Z,1003.39
2022-10-27T06:05:10.619Z,1003.38
2022-10-27T06:06:10.660Z,1003.39
2022-10-27T06:07:10.780Z,1003.42
2022-10-27T06:08:10.729Z,1003.43
2022-10-27T06:09:10.606Z,1003.48
2022-10-27T06:10:10.652Z,1003.43
2022-10-27T06:11:10.688Z,1003.48
2022-10-27T06:12:10.665Z,1003.56
2022-10-27T06:13:10.588Z,1003.56
2022-10-27T06:14:10.659Z,1003.57
2022-10-27T06:15:10.730Z,1003.58
2022-10-27T06:16:13.003Z,1003.54
2022-10-27T06:17:10.565Z,1003.54
2022-10-27T06:18:10.553Z,1003.54
2022-10-27T06:19:10.618Z,1003.49
2022-10-27T06:20:10.517Z,1003.49
2022-10-27T06:21:10.473Z,1003.51
2022-10-27T06:22:15.553Z,1003.44
2022-10-27T06:23:12.580Z,1003.48
2022-10-27T06:24:10.444Z,1003.43
2022-10-27T06:25:10.455Z,1003.39
2022-10-27T06:26:10.538Z,1003.43
2022-10-27T06:27:10.510Z,1003.44
2022-10-27T06:28:10.447Z,1003.51
2022-10-27T06:29:10.461Z,1003.44
2022-10-27T06:30:10.417Z,1003.45
2022-10-27T06:31:10.486Z,1003.55
2022-10-27T06:32:10.408Z,1003.54
2022-10-27T06:33:10.394Z,1003.51
2022-10-27T06:34:10.424Z,1003.54
2022-10-27T06:35:10.397Z,1003.43
2022-10-27T06:36:10.457Z,1003.46
2022-10-27T06:37:10.382Z,1003.53
2022-10-27T06:38:10.374Z,1003.51
2022-10-27T06:39:10.420Z,1003.52
2022-10-27T06:40:10.349Z,1003.60
2022-10-27T06:41:11.171Z,1003.62
2022-10-27T06:42:10.333Z,1003.62
2022-10-27T06:43:10.625Z,1003.58
2022-10-27T06:44:10.266Z,1003.60
2022-10-27T06:45:10.384Z,1003.64
2022-10-27T06:46:10.289Z,1003.60
2022-10-27T06:47:10.248Z,1003.66
2022-10-27T06:48:10.298Z,1003.70
2022-10-27T06:49:11.378Z,1003.65
2022-10-27T06:50:10.303Z,1003.67
2022-10-27T06:51:10.292Z,1003.69
2022-10-27T06:52:10.243Z,1003.65
2022-10-27T06:53:10.181Z,1003.69
2022-10-27T06:54:10.108Z,1003.71
2022-10-27T06:55:10.201Z,1003.69
2022-10-27T06:56:10.162Z,1003.70
2022-10-27T06:57:10.193Z,1003.70
2022-10-27T06:58:10.099Z,1003.68
2022-10-27T06:59:10.066Z,1003.68
2022-10-27T07:00:10.042Z,1003.70
2022-10-27T07:01:10.200Z,1003.71
2022-10-27T07:02:10.116Z,1003.70
2022-10-27T07:04:10.056Z,1003.72
2022-10-27T07:05:10.030Z,1003.76
2022-10-27T07:06:10.096Z,1003.77
2022-10-27T07:07:10.011Z,1003.79
2022-10-27T07:08:10.042Z,1003.83
2022-10-27T07:09:10.202Z,1003.86
2022-10-27T07:10:09.996Z,1003.91
2022-10-27T07:11:10.034Z,1003.86
2022-10-27T07:12:10.032Z,1003.86
2022-10-27T07:13:10.064Z,1003.85
2022-10-27T07:14:09.947Z,1003.86
2022-10-27T07:15:10.023Z,1003.85
2022-10-27T07:16:10.042Z,1003.82
2022-10-27T07:17:10.009Z,1003.89
2022-10-27T07:18:10.011Z,1003.85
2022-10-27T07:19:09.893Z,1003.88
2022-10-27T07:20:09.867Z,1003.88
2022-10-27T07:21:09.922Z,1003.86
2022-10-27T07:22:09.872Z,1003.92
2022-10-27T07:23:09.918Z,1003.93
2022-10-27T07:24:14.129Z,1003.98
2022-10-27T07:25:11.003Z,1003.98
2022-10-27T07:26:09.933Z,1004.03
2022-10-27T07:27:11.050Z,1004.02
2022-10-27T07:28:10.787Z,1004.07
2022-10-27T07:29:09.762Z,1004.07
2022-10-27T07:30:09.848Z,1004.06
2022-10-27T07:31:09.813Z,1004.07
2022-10-27T07:32:09.790Z,1004.02
2022-10-27T07:33:09.790Z,1004.06
2022-10-27T07:34:09.818Z,1004.02
2022-10-27T07:35:09.791Z,1004.02
2022-10-27T07:36:09.715Z,1004.05
2022-10-27T07:37:09.660Z,1004.05
2022-10-27T07:38:09.716Z,1004.02
2022-10-27T07:39:09.777Z,1004.03
2022-10-27T07:40:09.740Z,1004.08
2022-10-27T07:41:09.792Z,1004.10
2022-10-27T07:42:09.819Z,1004.00
2022-10-27T07:43:09.683Z,1004.09
2022-10-27T07:44:09.765Z,1004.09
2022-10-27T07:45:09.761Z,1004.12
2022-10-27T07:46:09.802Z,1004.08
2022-10-27T07:47:09.816Z,1004.06
2022-10-27T07:48:09.709Z,1004.12
2022-10-27T07:49:09.670Z,1004.16
2022-10-27T07:50:09.644Z,1004.13
2022-10-27T07:51:09.524Z,1004.13
2022-10-27T07:52:09.774Z,1004.15
2022-10-27T07:53:09.646Z,1004.11
2022-10-27T07:54:09.620Z,1004.12
2022-10-27T07:55:11.666Z,1004.15
2022-10-27T07:56:09.679Z,1004.14
2022-10-27T07:57:09.642Z,1004.11
2022-10-27T07:58:09.503Z,1004.10
2022-10-27T07:59:09.736Z,1004.10
2022-10-27T08:00:09.682Z,1004.05
2022-10-27T08:01:09.703Z,1004.10
2022-10-27T08:02:09.629Z,1004.18
2022-10-27T08:03:09.431Z,1004.17
2022-10-27T08:04:09.549Z,1004.12
2022-10-27T08:05:09.566Z,1004.12
2022-10-27T08:06:09.477Z,1004.17
2022-10-27T08:07:09.411Z,1004.18
2022-10-27T08:08:09.726Z,1004.14
2022-10-27T08:09:09.513Z,1004.18
2022-10-27T08:10:09.494Z,1004.23
2022-10-27T08:11:09.669Z,1004.24
2022-10-27T08:12:09.440Z,1004.18
2022-10-27T08:13:09.438Z,1004.18
2022-10-27T08:14:10.676Z,1004.16
2022-10-27T08:15:09.377Z,1004.17
2022-10-27T08:16:09.504Z,1004.18
2022-10-27T08:17:09.393Z,1004.20
2022-10-27T08:18:09.399Z,1004.28
2022-10-27T08:19:09.254Z,1004.25
2022-10-27T08:20:09.370Z,1004.23
2022-10-27T08:21:09.252Z,1004.22
2022-10-27T08:22:13.022Z,1004.21
2022-10-27T08:23:10.393Z,1004.22
2022-10-27T08:24:09.393Z,1004.20
2022-10-27T08:25:10.212Z,1004.24
2022-10-27T08:26:10.347Z,1004.20
2022-10-27T08:27:09.195Z,1004.21
2022-10-27T08:28:09.252Z,1004.21
2022-10-27T08:29:09.324Z,1004.08
2022-10-27T08:30:09.371Z,1004.14
2022-10-27T08:31:09.261Z,1004.14
2022-10-27T08:32:09.162Z,1004.15
2022-10-27T08:33:09.213Z,1004.14
2022-10-27T08:34:09.170Z,1004.15
2022-10-27T08:35:09.238Z,1004.17
2022-10-27T08:36:09.332Z,1004.16
2022-10-27T08:37:09.180Z,1004.09
2022-10-27T08:38:09.232Z,1004.10
2022-10-27T08:39:09.204Z,1004.13
2022-10-27T08:40:09.100Z,1004.15
2022-10-27T08:41:09.088Z,1004.12
2022-10-27T08:42:09.123Z,1004.17
2022-10-27T08:43:09.079Z,1004.15
2022-10-27T08:44:09.064Z,1004.14
2022-10-27T08:45:09.052Z,1004.13
2022-10-27T08:46:09.042Z,1004.13
2022-10-27T08:47:09.052Z,1004.14
2022-10-27T08:48:09.002Z,1004.11
2022-10-27T08:49:09.220Z,1004.12
2022-10-27T08:50:09.082Z,1004.06
2022-10-27T08:51:09.054Z,1004.04
2022-10-27T08:52:09.006Z,1004.12
2022-10-27T08:53:08.902Z,1004.11
2022-10-27T08:54:10.011Z,1004.03
2022-10-27T08:55:08.935Z,1004.09
2022-10-27T08:56:08.951Z,1004.15
2022-10-27T08:57:08.866Z,1004.12
2022-10-27T08:58:08.855Z,1004.14
2022-10-27T08:59:08.856Z,1004.02
2022-10-27T09:00:08.852Z,1004.07
2022-10-27T09:01:09.002Z,1003.98
2022-10-27T09:02:08.929Z,1004.00
2022-10-27T09:03:08.930Z,1004.03
2022-10-27T09:04:08.751Z,1003.90
2022-10-27T09:05:11.429Z,1003.93
2022-10-27T09:06:11.557Z,1003.90
2022-10-27T09:07:10.049Z,1003.94
2022-10-27T09:08:09.852Z,1003.98
2022-10-27T09:09:08.848Z,1003.91
2022-10-27T09:10:08.866Z,1003.97
2022-10-27T09:11:08.782Z,1003.91
2022-10-27T09:12:08.662Z,1003.88
2022-10-27T09:13:08.701Z,1003.89
2022-10-27T09:14:08.784Z,1003.80
2022-10-27T09:15:08.633Z,1003.84
2022-10-27T09:16:08.675Z,1003.73
2022-10-27T09:17:08.668Z,1003.71
2022-10-27T09:18:08.702Z,1003.66
2022-10-27T09:19:08.769Z,1003.70
2022-10-27T09:20:08.717Z,1003.63
2022-10-27T09:21:08.795Z,1003.63
2022-10-27T09:22:08.889Z,1003.65
2022-10-27T09:23:10.512Z,1003.63
2022-10-27T09:24:08.782Z,1003.61
2022-10-27T09:25:08.655Z,1003.64
2022-10-27T09:26:08.798Z,1003.66
2022-10-27T09:27:08.674Z,1003.67
2022-10-27T09:28:08.608Z,1003.66
2022-10-27T09:29:08.611Z,1003.68
2022-10-27T09:30:12.911Z,1003.81
2022-10-27T09:31:08.614Z,1003.77
2022-10-27T09:32:08.615Z,1003.78
2022-10-27T09:33:08.572Z,1003.77
2022-10-27T09:34:08.550Z,1003.69
2022-10-27T09:35:08.653Z,1003.72
2022-10-27T09:36:08.536Z,1003.65
2022-10-27T09:37:08.560Z,1003.67
2022-10-27T09:38:08.524Z,1003.65
2022-10-27T09:39:08.595Z,1003.61
2022-10-27T09:40:08.540Z,1003.68
2022-10-27T09:41:08.500Z,1003.65
2022-10-27T09:42:08.457Z,1003.66
2022-10-27T09:43:08.430Z,1003.64
2022-10-27T09:44:08.421Z,1003.66
2022-10-27T09:45:08.431Z,1003.65
2022-10-27T09:46:08.358Z,1003.63
2022-10-27T09:47:08.423Z,1003.60
2022-10-27T09:48:08.368Z,1003.63
2022-10-27T09:49:10.872Z,1003.61
2022-10-27T09:50:09.910Z,1003.56
2022-10-27T09:51:08.342Z,1003.63
2022-10-27T09:52:08.294Z,1003.60
2022-10-27T09:53:08.305Z,1003.65
2022-10-27T09:54:08.276Z,1003.68
2022-10-27T09:55:08.303Z,1003.70
2022-10-27T09:56:08.268Z,1003.69
2022-10-27T09:57:08.190Z,1003.70
2022-10-27T09:58:08.250Z,1003.75
2022-10-27T09:59:08.327Z,1003.74
2022-10-27T10:00:08.248Z,1003.73
2022-10-27T10:01:08.271Z,1003.78
2022-10-27T10:02:08.512Z,1003.72
2022-10-27T10:03:08.225Z,1003.74
2022-10-27T10:04:11.812Z,1003.71
2022-10-27T10:05:08.208Z,1003.78
2022-10-27T10:06:08.221Z,1003.74
2022-10-27T10:07:08.124Z,1003.66
2022-10-27T10:08:08.195Z,1003.75
2022-10-27T10:09:08.124Z,1003.68
2022-10-27T10:10:08.100Z,1003.65
2022-10-27T10:11:08.161Z,1003.67
2022-10-27T10:12:08.387Z,1003.67
2022-10-27T10:13:08.127Z,1003.69
2022-10-27T10:14:08.076Z,1003.66
2022-10-27T10:15:08.134Z,1003.65
2022-10-27T10:16:08.090Z,1003.64
2022-10-27T10:17:08.070Z,1003.61
2022-10-27T10:18:08.019Z,1003.58
2022-10-27T10:19:08.069Z,1003.52
2022-10-27T10:20:08.034Z,1003.57
2022-10-27T10:21:08.045Z,1003.50
2022-10-27T10:22:08.015Z,1003.50
2022-10-27T10:23:07.952Z,1003.54
2022-10-27T10:24:08.107Z,1003.53
2022-10-27T10:25:07.988Z,1003.52
2022-10-27T10:26:07.987Z,1003.60
2022-10-27T10:27:07.946Z,1003.56
2022-10-27T10:28:07.963Z,1003.56
2022-10-27T10:29:07.931Z,1003.58
2022-10-27T10:30:07.921Z,1003.57
2022-10-27T10:31:07.926Z,1003.57
2022-10-27T10:32:07.924Z,1003.55
2022-10-27T10:33:07.892Z,1003.56
2022-10-27T10:34:07.950Z,1003.55
2022-10-27T10:35:07.869Z,1003.52
2022-10-27T10:36:07.911Z,1003.59
2022-10-27T10:37:07.864Z,1003.59
2022-10-27T10:38:07.842Z,1003.52
2022-10-27T10:39:07.827Z,1003.50
2022-10-27T10:40:07.815Z,1003.50
2022-10-27T10:41:07.810Z,1003.42
2022-10-27T10:42:07.799Z,1003.44
2022-10-27T10:43:07.769Z,1003.44
2022-10-27T10:44:07.777Z,1003.38
2022-10-27T10:45:07.780Z,1003.34
2022-10-27T10:46:07.787Z,1003.41
2022-10-27T10:47:07.762Z,1003.33
2022-10-27T10:48:07.737Z,1003.35
2022-10-27T10:49:07.731Z,1003.37
2022-10-27T10:50:07.693Z,1003.29
2022-10-27T10:51:07.737Z,1003.21
2022-10-27T10:52:07.657Z,1003.23
2022-10-27T10:53:07.688Z,1003.27
2022-10-27T10:54:07.658Z,1003.25
2022-10-27T10:55:07.624Z,1003.15
2022-10-27T10:56:07.638Z,1003.16
2022-10-27T10:57:07.679Z,1003.15
2022-10-27T10:58:07.631Z,1003.16
2022-10-27T10:59:07.610Z,1003.15
2022-10-27T11:00:07.610Z,1003.15
2022-10-27T11:01:07.823Z,1003.08
2022-10-27T11:02:07.651Z,1003.07
2022-10-27T11:03:07.547Z,1003.07
2022-10-27T11:04:07.567Z,1002.98
2022-10-27T11:05:07.528Z,1003.02
2022-10-27T11:06:07.578Z,1003.02
2022-10-27T11:07:07.556Z,1003.05
2022-10-27T11:08:07.545Z,1002.99
2022-10-27T11:09:07.528Z,1003.06
2022-10-27T11:10:09.837Z,1002.97
2022-10-27T11:11:08.457Z,1002.96
2022-10-27T11:12:07.487Z,1002.93
2022-10-27T11:13:07.434Z,1002.89
2022-10-27T11:14:07.450Z,1002.88
2022-10-27T11:15:07.469Z,1002.86
2022-10-27T11:16:07.471Z,1002.86
2022-10-27T11:17:07.474Z,1002.83
2022-10-27T11:18:07.414Z,1002.83
2022-10-27T11:19:07.425Z,1002.79
2022-10-27T11:20:07.431Z,1002.72
2022-10-27T11:21:07.400Z,1002.72
2022-10-27T11:22:07.412Z,1002.73
2022-10-27T11:23:07.391Z,1002.68
2022-10-27T11:24:07.399Z,1002.64
2022-10-27T11:25:07.364Z,1002.68
2022-10-27T11:26:08.369Z,1002.64
2022-10-27T11:27:07.306Z,1002.69
2022-10-27T11:28:07.344Z,1002.62
2022-10-27T11:29:07.300Z,1002.61
2022-10-27T11:30:07.328Z,1002.57
2022-10-27T11:31:07.372Z,1002.47
2022-10-27T11:32:07.290Z,1002.45
2022-10-27T11:33:07.275Z,1002.44
2022-10-27T11:34:07.310Z,1002.40
2022-10-27T11:35:07.353Z,1002.40
2022-10-27T11:36:10.251Z,1002.29
2022-10-27T11:37:07.302Z,1002.34
2022-10-27T11:38:07.233Z,1002.30
2022-10-27T11:39:07.229Z,1002.31
2022-10-27T11:40:07.467Z,1002.25
2022-10-27T11:41:07.250Z,1002.25
2022-10-27T11:42:07.364Z,1002.24
2022-10-27T11:43:07.201Z,1002.24
2022-10-27T11:44:10.020Z,1002.13
2022-10-27T11:45:08.135Z,1002.05
2022-10-27T11:46:07.160Z,1002.05
2022-10-27T11:47:07.146Z,1002.10
2022-10-27T11:48:07.121Z,1002.07
2022-10-27T11:49:07.157Z,1002.04
2022-10-27T11:50:07.112Z,1002.06
2022-10-27T11:51:07.122Z,1002.09
2022-10-27T11:52:07.079Z,1002.03
2022-10-27T11:53:12.325Z,1002.03
2022-10-27T11:54:09.105Z,1002.02
2022-10-27T11:55:07.056Z,1001.98
2022-10-27T11:56:09.293Z,1001.98
2022-10-27T11:57:11.829Z,1001.93
2022-10-27T11:58:07.996Z,1001.98
2022-10-27T11:59:06.979Z,1001.97
2022-10-27T12:00:06.980Z,1001.96
2022-10-27T12:01:07.130Z,1001.89
2022-10-27T12:02:07.273Z,1001.91
2022-10-27T12:03:07.063Z,1001.82
2022-10-27T12:04:06.964Z,1001.85
2022-10-27T12:05:06.971Z,1001.79
2022-10-27T12:06:06.975Z,1001.78
2022-10-27T12:07:06.945Z,1001.77
2022-10-27T12:08:39.589Z,1001.77
2022-10-27T12:09:07.847Z,1001.80
2022-10-27T12:10:07.110Z,1001.74
2022-10-27T12:11:06.900Z,1001.76
2022-10-27T12:12:39.457Z,1001.80
2022-10-27T12:13:07.191Z,1001.72
2022-10-27T12:14:07.179Z,1001.77
2022-10-27T12:15:39.659Z,1001.72
2022-10-27T12:16:07.088Z,1001.72
2022-10-27T12:17:39.420Z,1001.72
2022-10-27T12:18:09.895Z,1001.68
2022-10-27T12:19:39.451Z,1001.72
2022-10-27T12:20:06.979Z,1001.71
2022-10-27T12:21:40.496Z,1001.77
2022-10-27T12:22:06.959Z,1001.76
2022-10-27T12:23:39.450Z,1001.70
2022-10-27T12:24:39.335Z,1001.68
2022-10-27T12:25:06.875Z,1001.66
2022-10-27T12:26:40.517Z,1001.63
2022-10-27T12:27:06.974Z,1001.64
2022-10-27T12:28:06.981Z,1001.69
2022-10-27T12:29:39.309Z,1001.61
2022-10-27T12:30:39.342Z,1001.56
2022-10-27T12:31:07.023Z,1001.56
2022-10-27T12:32:33.633Z,1001.49
2022-10-27T12:33:06.851Z,1001.53
2022-10-27T12:34:39.287Z,1001.48
2022-10-27T12:35:39.334Z,1001.49
2022-10-27T12:36:07.020Z,1001.56
2022-10-27T12:37:39.300Z,1001.55
2022-10-27T12:38:06.881Z,1001.54
2022-10-27T12:39:39.221Z,1001.49
2022-10-27T12:40:39.687Z,1001.52
2022-10-27T12:41:40.246Z,1001.54
2022-10-27T12:42:33.525Z,1001.50
2022-10-27T12:43:37.401Z,1001.52
2022-10-27T12:44:33.218Z,1001.52
2022-10-27T12:45:39.156Z,1001.48
2022-10-27T12:46:40.418Z,1001.54
2022-10-27T12:47:06.738Z,1001.45
2022-10-27T12:48:39.073Z,1001.48
2022-10-27T12:49:39.120Z,1001.49
2022-10-27T12:53:36.612Z,1001.41
2022-10-27T12:56:20.836Z,1001.43
2022-10-27T12:58:42.854Z,1001.34
2022-10-27T13:03:06.758Z,1001.30
2022-10-27T13:04:14.462Z,1001.27
2022-10-27T13:05:40.499Z,1001.33
2022-10-27T13:06:41.753Z,1001.30
2022-10-27T13:11:57.509Z,1001.20
2022-10-27T13:13:05.280Z,1001.10
2022-10-27T13:14:05.490Z,1001.03
2022-10-27T13:15:05.162Z,1001.05
2022-10-27T13:16:32.324Z,1001.02
2022-10-27T13:17:25.224Z,1001.03
2022-10-27T13:18:31.164Z,1001.09
2022-10-27T13:19:31.234Z,1001.09
2022-10-27T13:20:31.385Z,1001.11
2022-10-27T13:21:32.562Z,1001.17
2022-10-27T13:22:31.117Z,1001.07
2022-10-27T13:28:34.742Z,1000.99
2022-10-27T13:31:46.069Z,1000.89
2022-10-27T13:36:54.524Z,1000.92
2022-10-27T13:44:25.775Z,1000.94
2022-10-27T13:47:44.102Z,1000.88
2022-10-27T13:57:11.344Z,1000.90
2022-10-27T13:58:46.370Z,1000.90
2022-10-27T14:03:20.880Z,1000.93
2022-10-27T14:04:20.983Z,1000.91
2022-10-27T14:07:42.660Z,1000.89
2022-10-27T14:15:14.214Z,1000.87
2022-10-27T14:30:45.235Z,1000.70
2022-10-27T14:34:30.799Z,1000.74
2022-10-27T14:44:27.891Z,1000.80
2022-10-27T14:50:34.603Z,1000.85
2022-10-27T15:01:27.403Z,1000.79
